Duke Field AFS, FL

5:38 PM CST on February 11, 2016 (GMT -0600)
John King 2nd edition | | Change Station
CLOSE
Current Station
Personal Weather Station
Location: Crestview, FL
Elevation: 138 ft
Nearby Weather Stations

Elev 138 ft 30.72 °N, 86.55 °W | Updated 4 minutes ago

Partly Cloudy
Partly Cloudy
62.1 °F
Feels Like 62.1 °F
N
0.0
Wind Variable Wind from NE

Today
High -- | Low -- °F
--% Chance of Precip.
Yesterday
High -- | Low -- °F
Precip. -- in
Pressure 30.15 in
Visibility 10.0 miles
Clouds Clear
Dew Point 55 °F
Humidity 77%
Rainfall 0.00 in
Snow Depth Not available.
6:30 AM 5:30 PM
Waxing Crescent, 15% visible
METAR KCEW 112253Z AUTO 22008KT 10SM CLR 18/12 A3015 RMK AO2 SLP210 T01830122
Pressure 30.15 in
Visibility 10.0 miles
Clouds Clear
Dew Point 55 °F
Humidity 77%
Rainfall 0.00 in
Snow Depth Not available.
6:30 AM 5:30 PM
Waxing Crescent, 15% visible
METAR KCEW 112253Z AUTO 22008KT 10SM CLR 18/12 A3015 RMK AO2 SLP210 T01830122

10-Day Weather Forecast

Almanac

Astronomy

Feb. 11, 2016 Rise Set
Actual Time
Civil Twilight
Nautical Twilight
Astronomical Twilight
Moon
Length of Visible Light
Length of Day
Tomorrow will be .
, % of the Moon is Illuminated

Today's Extremes

State Highs State Lows

Community

WunderPhotos

Upload Photos

1,892,181 photos uploaded!

WunderBlog® & News

Nearby

Air Quality

  Air Quality AQ Index Pollutant
Not available.

Snow Depth

Station Depth Elevation

Earthquake Activity

City Distance Mag. Time & Date
Minimum magnitude displayed is 2.5.

Coastal Water Temperatures

Place Temperature

Stations

Nearby Weather Stations

Station Location Temp. Windchill Dew Point Humidity Wind Precip. Elev Updated Type
                   

Watches & Warnings

There are currently no watches in effect.